This is the latest recevied weather packets stored in our database for station/object p43g-13. If no packets are shown the sender has not sent any weather packets the latest 10 day(s).
| Time | Temp. | Humidity | Pressure | Rain* | Wind** | Luminosity | Snow |
|---|---|---|---|---|---|---|---|
| 1788019555 | 32.22° C | 72% | 1012 hPa | 0 mm | - | 1087 W/m² | - |
| 1788019256 | 32.22° C | 72% | 1012.1 hPa | 0 mm | - | 966 W/m² | - |
| 1788018955 | 32.22° C | 72% | 1012.1 hPa | 0 mm | - | 990 W/m² | - |
| 1788018655 | 31.67° C | 75% | 1011.9 hPa | 0 mm | - | 1080 W/m² | - |
| 1788018354 | 31.67° C | 75% | 1012 hPa | 0 mm | - | 1059 W/m² | - |
| 1788018055 | 31.11° C | 76% | 1012.1 hPa | 0 mm | - | 1106 W/m² | - |
| 1788017755 | 31.11° C | 76% | 1012.4 hPa | 0 mm | - | 1146 W/m² | - |
| 1788017454 | 31.11° C | 76% | 1012.6 hPa | 0 mm | - | 685 W/m² | - |
| 1788017155 | 30.56° C | 77% | 1012.4 hPa | 0 mm | - | 1210 W/m² | - |
| 1788016855 | 31.11° C | 75% | 1012.3 hPa | 0 mm | - | 276 W/m² | - |
| 1788016555 | 30.56° C | 77% | 1012.5 hPa | 0 mm | - | 444 W/m² | - |
| 1788016255 | 31.11° C | 76% | 1012.6 hPa | 0 mm | - | 466 W/m² | - |
| 1788015955 | 31.11° C | 76% | 1012.7 hPa | 0 mm | - | 260 W/m² | - |
| 1788015655 | 31.11° C | 77% | 1012.8 hPa | 0 mm | - | 996 W/m² | - |
| 1788015355 | 31.11° C | 77% | 1012.9 hPa | 0 mm | - | 492 W/m² | - |
| 1788015055 | 31.67° C | 75% | 1012.8 hPa | 0 mm | - | 267 W/m² | - |
| 1788014755 | 31.67° C | 73% | 1012.6 hPa | 0 mm | - | 882 W/m² | - |
| 1788014455 | 31.67° C | 74% | 1012.7 hPa | 0 mm | - | 775 W/m² | - |
| 1788014155 | 31.67° C | 74% | 1012.7 hPa | 0 mm | - | 901 W/m² | - |
| 1788013855 | 31.11° C | 76% | 1012.7 hPa | 0 mm | - | 189 W/m² | - |
| 1788013555 | 31.11° C | 75% | 1012.6 hPa | 0 mm | - | 440 W/m² | - |
| 1788013256 | 31.11° C | 76% | 1012.2 hPa | 0 mm | - | 319 W/m² | - |
| 1788012955 | 31.11° C | 76% | 1012.7 hPa | 0 mm | - | 481 W/m² | - |
| 1788012655 | 30.56° C | 77% | 1012.4 hPa | 0 mm | - | 466 W/m² | - |
| 1788012355 | 30.56° C | 77% | 1012.3 hPa | 0 mm | - | 627 W/m² | - |
* Rain latest hour (hover to see other rain measurements)
** Current wind speed in m/s (hover to see current wind gust speed)